Bataipora, Brazil
Current Conditions -  °F | °C
As of 5:00 AM on Sunday 26 Oct 2014 (Local Time) from SBMG Reporting Station
Few Clouds Few Clouds  
Wind Chill: 68°   Ceiling: Unl
Heat Index: 68°   Visibility: 6mi
Dew Point: 64°   Wind: 10mph
Humidity: 88%   Direction: 10°N
Pressure: 29.91"   Gusts: NA
Location:  22.3°S, 53.27°W
Report Text: SBMG 260800Z 01009KT 9999 FEW015 20/18 Q1013
Loading
Personal Weather Stations






























Interactive Weather Map
Tropical Storm Tracking
New forecast layout! Learn more

10-Day Weather Forecast

Advertisements
Track Severe Weather on mobile